createdAt,value
2023-05-05T00:02:26.474Z,95424.78
2023-05-05T00:04:53.295Z,95422.50
2023-05-05T00:07:19.840Z,95409.78
2023-05-05T00:09:46.367Z,95399.41
2023-05-05T00:12:12.962Z,95408.09
2023-05-05T00:14:39.454Z,95407.66
2023-05-05T00:17:06.057Z,95405.72
2023-05-05T00:19:32.697Z,95399.97
2023-05-05T00:21:59.359Z,95412.91
2023-05-05T00:24:25.906Z,95400.75
2023-05-05T00:26:52.471Z,95408.25
2023-05-05T00:29:19.022Z,95418.91
2023-05-05T00:31:45.504Z,95415.13
2023-05-05T00:34:12.008Z,95412.16
2023-05-05T00:36:38.630Z,95400.72
2023-05-05T00:39:05.164Z,95414.28
2023-05-05T00:41:31.691Z,95403.00
2023-05-05T00:43:58.210Z,95417.28
2023-05-05T00:46:28.058Z,95403.28
2023-05-05T00:48:55.280Z,95409.84
2023-05-05T00:51:22.791Z,95409.78
2023-05-05T00:53:49.957Z,95405.94
2023-05-05T00:56:22.109Z,95403.16
2023-05-05T00:58:49.388Z,95391.50
2023-05-05T01:01:16.726Z,95404.66
2023-05-05T01:03:43.577Z,95403.97
2023-05-05T01:06:23.023Z,95401.16
2023-05-05T01:09:05.982Z,95401.16
2023-05-05T01:11:51.708Z,95398.25
2023-05-05T01:14:24.514Z,95389.81
2023-05-05T01:16:59.346Z,95391.47
2023-05-05T01:19:44.717Z,95408.38
2023-05-05T01:22:15.142Z,95408.41
2023-05-05T01:25:27.056Z,95409.53
2023-05-05T01:28:24.538Z,95408.13
2023-05-05T01:31:09.413Z,95406.22
2023-05-05T01:33:49.674Z,95407.28
2023-05-05T01:36:25.998Z,95410.84
2023-05-05T01:38:58.110Z,95402.25
2023-05-05T01:41:30.322Z,95398.84
2023-05-05T01:43:59.193Z,95395.94
2023-05-05T01:46:27.135Z,95382.75
2023-05-05T01:48:56.804Z,95393.56
2023-05-05T01:51:24.804Z,95394.97
2023-05-05T01:53:58.509Z,95394.44
2023-05-05T01:56:26.430Z,95389.00
2023-05-05T01:58:54.692Z,95395.78
2023-05-05T02:01:24.311Z,95395.75
2023-05-05T02:03:52.548Z,95393.03
2023-05-05T02:06:21.653Z,95387.41
2023-05-05T02:08:50.090Z,95401.22
2023-05-05T02:11:17.919Z,95402.31
2023-05-05T02:13:46.396Z,95401.56
2023-05-05T02:16:13.924Z,95395.50
2023-05-05T02:18:42.441Z,95400.13
2023-05-05T02:21:09.601Z,95405.06
2023-05-05T02:23:36.437Z,95402.19
2023-05-05T02:26:07.090Z,95409.94
2023-05-05T02:28:42.135Z,95395.19
2023-05-05T02:31:10.964Z,95394.09
2023-05-05T02:33:39.299Z,95389.91
2023-05-05T02:36:14.765Z,95392.44
2023-05-05T02:38:44.954Z,95394.00
2023-05-05T02:41:16.725Z,95387.16
2023-05-05T02:43:45.002Z,95401.50
2023-05-05T02:46:11.704Z,95392.03
2023-05-05T02:48:38.297Z,95396.19
2023-05-05T02:51:05.854Z,95391.59
2023-05-05T02:53:32.605Z,95389.28
2023-05-05T02:56:17.989Z,95388.56
2023-05-05T02:59:07.778Z,95393.97
2023-05-05T03:01:47.872Z,95390.16
2023-05-05T03:04:25.126Z,95386.38
2023-05-05T03:06:57.454Z,95383.34
2023-05-05T03:09:36.957Z,95374.31
2023-05-05T03:12:10.073Z,95369.84
2023-05-05T03:14:41.594Z,95375.91
2023-05-05T03:17:12.748Z,95371.97
2023-05-05T03:19:42.147Z,95372.97
2023-05-05T03:22:08.970Z,95370.84
2023-05-05T03:24:35.539Z,95363.94
2023-05-05T03:27:02.870Z,95371.00
2023-05-05T03:29:30.218Z,95356.06
2023-05-05T03:31:56.821Z,95360.19
2023-05-05T03:34:23.496Z,95365.81
2023-05-05T03:36:50.138Z,95357.38
2023-05-05T03:39:17.095Z,95365.00
2023-05-05T03:41:43.662Z,95357.63
2023-05-05T03:44:10.591Z,95366.72
2023-05-05T03:46:37.151Z,95370.03
2023-05-05T03:49:03.739Z,95367.75
2023-05-05T03:51:31.510Z,95369.31
2023-05-05T03:53:57.997Z,95367.78
2023-05-05T03:56:24.548Z,95365.88
2023-05-05T03:58:51.109Z,95363.94
2023-05-05T04:01:17.635Z,95367.25
2023-05-05T04:03:44.349Z,95365.53
2023-05-05T04:06:11.585Z,95364.47
2023-05-05T04:08:38.117Z,95370.84
2023-05-05T04:11:04.725Z,95368.59
2023-05-05T04:13:31.429Z,95372.41
2023-05-05T04:15:59.813Z,95376.88
2023-05-05T04:18:26.454Z,95377.72
2023-05-05T04:20:53.146Z,95377.31
2023-05-05T04:23:19.763Z,95377.31
2023-05-05T04:25:46.507Z,95371.78
2023-05-05T04:28:13.049Z,95373.00
2023-05-05T04:30:39.963Z,95374.81
2023-05-05T04:33:06.573Z,95371.56
2023-05-05T04:35:33.195Z,95373.47
2023-05-05T04:37:59.853Z,95380.13
2023-05-05T04:40:26.845Z,95378.06
2023-05-05T04:42:53.484Z,95386.72
2023-05-05T04:45:20.142Z,95374.91
2023-05-05T04:47:46.793Z,95385.41
2023-05-05T04:50:13.814Z,95392.22
2023-05-05T04:52:40.416Z,95398.13
2023-05-05T04:55:09.080Z,95388.97
2023-05-05T04:57:35.715Z,95395.34
2023-05-05T05:00:04.751Z,95400.94
2023-05-05T05:02:31.455Z,95399.22
2023-05-05T05:04:58.244Z,95386.34
2023-05-05T05:07:24.867Z,95395.63
2023-05-05T05:09:51.607Z,95396.38
2023-05-05T05:12:18.172Z,95401.19
2023-05-05T05:14:44.764Z,95394.09
2023-05-05T05:17:11.539Z,95405.28
2023-05-05T05:19:38.054Z,95396.34
2023-05-05T05:22:04.728Z,95401.28
2023-05-05T05:24:31.258Z,95399.56
2023-05-05T05:26:58.675Z,95402.88
2023-05-05T05:29:25.442Z,95403.13
2023-05-05T05:31:52.115Z,95416.09
2023-05-05T05:34:18.674Z,95413.59
2023-05-05T05:36:45.173Z,95412.59
2023-05-05T05:39:11.684Z,95410.19
2023-05-05T05:41:38.252Z,95416.47
2023-05-05T05:44:05.030Z,95426.56
2023-05-05T05:46:31.600Z,95424.53
2023-05-05T05:48:58.307Z,95410.53
2023-05-05T05:51:24.873Z,95422.22
2023-05-05T05:53:51.917Z,95425.22
2023-05-05T05:56:18.445Z,95421.09
2023-05-05T05:58:45.370Z,95427.59
2023-05-05T06:01:12.125Z,95429.31
2023-05-05T06:03:38.805Z,95416.88
2023-05-05T06:06:05.782Z,95415.38
2023-05-05T06:08:32.442Z,95425.69
2023-05-05T06:11:00.622Z,95426.75
2023-05-05T06:13:27.471Z,95413.19
2023-05-05T06:15:54.060Z,95418.38
2023-05-05T06:18:20.700Z,95419.47
2023-05-05T06:20:51.092Z,95420.56
2023-05-05T06:23:18.244Z,95419.13
2023-05-05T06:25:44.906Z,95419.75
2023-05-05T06:28:11.640Z,95413.59
2023-05-05T06:30:38.306Z,95428.34
2023-05-05T06:33:04.981Z,95417.16
2023-05-05T06:35:32.053Z,95404.88
2023-05-05T06:37:58.638Z,95416.97
2023-05-05T06:40:25.514Z,95417.66
2023-05-05T06:42:52.241Z,95419.66
2023-05-05T06:45:18.911Z,95417.94
2023-05-05T06:47:45.540Z,95415.63
2023-05-05T06:50:12.300Z,95422.59
2023-05-05T06:52:38.880Z,95415.25
2023-05-05T06:55:05.964Z,95402.41
2023-05-05T06:57:32.551Z,95411.78
2023-05-05T06:59:59.154Z,95405.34
2023-05-05T07:02:26.973Z,95416.66
2023-05-05T07:04:55.415Z,95413.28
2023-05-05T07:07:22.151Z,95406.94
2023-05-05T07:09:48.713Z,95412.56
2023-05-05T07:12:15.348Z,95415.28
2023-05-05T07:14:42.158Z,95405.41
2023-05-05T07:17:08.730Z,95403.38
2023-05-05T07:19:35.283Z,95408.69
2023-05-05T07:22:01.867Z,95406.91
2023-05-05T07:24:28.403Z,95403.81
2023-05-05T07:26:55.096Z,95409.69
2023-05-05T07:29:21.755Z,95405.44
2023-05-05T07:31:48.515Z,95400.00
2023-05-05T07:34:15.131Z,95403.09
2023-05-05T07:36:42.073Z,95400.31
2023-05-05T07:39:08.683Z,95396.88
2023-05-05T07:41:35.261Z,95409.00
2023-05-05T07:44:01.810Z,95408.81
2023-05-05T07:46:28.405Z,95408.63
2023-05-05T07:48:55.060Z,95410.06
2023-05-05T07:51:21.634Z,95400.59
2023-05-05T07:53:48.186Z,95406.31
2023-05-05T07:56:14.805Z,95400.88
2023-05-05T07:58:42.307Z,95406.19
2023-05-05T08:01:11.135Z,95400.91
2023-05-05T08:03:38.119Z,95393.63
2023-05-05T08:06:10.568Z,95396.97
2023-05-05T08:08:37.453Z,95394.69
2023-05-05T08:11:06.429Z,95395.75
2023-05-05T08:13:33.096Z,95389.50
2023-05-05T08:15:59.759Z,95383.69
2023-05-05T08:18:26.632Z,95389.91
2023-05-05T08:20:54.668Z,95394.34
2023-05-05T08:23:21.597Z,95386.50
2023-05-05T08:25:48.229Z,95393.13
2023-05-05T08:28:14.757Z,95388.50
2023-05-05T08:30:41.813Z,95389.47
2023-05-05T08:33:08.527Z,95370.19
2023-05-05T08:35:35.253Z,95381.94
2023-05-05T08:38:02.095Z,95370.44
2023-05-05T08:40:33.887Z,95378.44
2023-05-05T08:43:01.428Z,95372.59
2023-05-05T08:45:31.439Z,95370.53
2023-05-05T08:48:01.754Z,95361.09
2023-05-05T08:50:30.042Z,95360.06
2023-05-05T08:53:11.593Z,95363.44
2023-05-05T08:55:50.461Z,95355.75
2023-05-05T08:58:19.340Z,95355.91
2023-05-05T09:00:46.463Z,95348.91
2023-05-05T09:03:13.510Z,95347.31
2023-05-05T09:05:42.678Z,95348.22
2023-05-05T09:08:11.466Z,95342.78
2023-05-05T09:10:41.773Z,95349.47
2023-05-05T09:13:08.697Z,95340.78
2023-05-05T09:15:35.262Z,95343.22
2023-05-05T09:18:02.455Z,95341.44
2023-05-05T09:20:39.900Z,95346.19
2023-05-05T09:23:14.547Z,95331.91
2023-05-05T09:25:43.546Z,95342.28
2023-05-05T09:28:12.326Z,95336.63
2023-05-05T09:30:40.218Z,95326.22
2023-05-05T09:33:07.151Z,95328.75
2023-05-05T09:35:55.756Z,95330.41
2023-05-05T09:38:24.085Z,95325.03
2023-05-05T09:40:52.808Z,95323.38
2023-05-05T09:43:21.637Z,95320.53
2023-05-05T09:45:49.083Z,95308.47
2023-05-05T09:48:29.029Z,95314.28
2023-05-05T09:50:56.776Z,95302.34
2023-05-05T09:53:24.545Z,95299.38
2023-05-05T09:55:58.562Z,95295.16
2023-05-05T09:58:29.926Z,95299.06
2023-05-05T10:00:58.258Z,95310.84
2023-05-05T10:03:25.760Z,95302.59
2023-05-05T10:05:55.733Z,95299.59
2023-05-05T10:08:26.596Z,95299.06
2023-05-05T10:11:06.491Z,95296.97
2023-05-05T10:13:37.497Z,95298.06
2023-05-05T10:16:07.266Z,95300.44
2023-05-05T10:18:34.892Z,95292.28
2023-05-05T10:21:03.962Z,95292.28
2023-05-05T10:23:41.636Z,95288.75
2023-05-05T10:26:13.432Z,95279.16
2023-05-05T10:29:04.121Z,95284.41
2023-05-05T10:31:41.850Z,95287.69
2023-05-05T10:34:19.028Z,95267.06
2023-05-05T10:36:45.891Z,95276.50
2023-05-05T10:39:16.281Z,95276.19
2023-05-05T10:41:44.171Z,95278.16
2023-05-05T10:44:11.613Z,95277.31
2023-05-05T10:46:39.107Z,95262.69
2023-05-05T10:49:17.746Z,95268.06
2023-05-05T10:52:00.118Z,95271.81
2023-05-05T10:54:45.275Z,95261.94
2023-05-05T10:57:12.438Z,95257.41
2023-05-05T10:59:40.902Z,95251.44
2023-05-05T11:02:30.143Z,95245.59
2023-05-05T11:05:23.311Z,95250.53
2023-05-05T11:07:51.812Z,95243.00
2023-05-05T11:10:20.788Z,95236.41
2023-05-05T11:13:00.299Z,95239.75
2023-05-05T11:15:37.350Z,95234.94
2023-05-05T11:18:07.495Z,95220.44
2023-05-05T11:20:39.645Z,95223.13
2023-05-05T11:23:06.360Z,95219.66
2023-05-05T11:25:42.051Z,95219.88
2023-05-05T11:28:10.799Z,95222.56
2023-05-05T11:30:59.400Z,95213.53
2023-05-05T11:33:33.522Z,95214.28
2023-05-05T11:36:06.704Z,95208.63
2023-05-05T11:38:36.577Z,95195.06
2023-05-05T11:41:10.075Z,95199.91
2023-05-05T11:43:37.009Z,95200.94
2023-05-05T11:46:13.637Z,95192.22
2023-05-05T11:48:47.863Z,95197.69
2023-05-05T11:51:18.735Z,95202.69
2023-05-05T11:53:49.804Z,95200.22
2023-05-05T11:56:21.960Z,95200.09
2023-05-05T11:59:04.575Z,95196.00
2023-05-05T12:01:31.200Z,95198.94
2023-05-05T12:03:58.049Z,95198.84
2023-05-05T12:06:24.842Z,95193.94
2023-05-05T12:08:51.553Z,95192.25
2023-05-05T12:11:18.686Z,95191.00
2023-05-05T12:13:46.406Z,95187.25
2023-05-05T12:16:16.871Z,95183.63
2023-05-05T12:18:43.502Z,95179.19
2023-05-05T12:21:20.558Z,95172.84
2023-05-05T12:23:47.109Z,95173.88
2023-05-05T12:26:31.017Z,95167.81
2023-05-05T12:29:01.317Z,95161.09
2023-05-05T12:31:41.802Z,95156.94
2023-05-05T12:34:10.295Z,95161.81
2023-05-05T12:36:37.619Z,95166.41
2023-05-05T12:39:07.584Z,95167.94
2023-05-05T12:41:34.500Z,95161.81
2023-05-05T12:44:03.198Z,95151.72
2023-05-05T12:46:31.076Z,95150.44
2023-05-05T12:49:05.943Z,95142.88
2023-05-05T12:51:34.166Z,95142.56
2023-05-05T12:54:08.185Z,95136.47
2023-05-05T12:56:45.993Z,95126.81
2023-05-05T12:59:21.854Z,95122.03
2023-05-05T13:01:54.678Z,95123.34
2023-05-05T13:04:27.941Z,95120.72
2023-05-05T13:07:13.646Z,95119.00
2023-05-05T13:09:40.737Z,95132.28
2023-05-05T13:12:13.858Z,95141.44
2023-05-05T13:14:41.549Z,95126.75
2023-05-05T13:17:08.489Z,95120.53
2023-05-05T13:19:42.449Z,95115.28
2023-05-05T13:22:13.032Z,95100.06
2023-05-05T13:24:50.719Z,95122.34
2023-05-05T13:27:18.980Z,95134.50
2023-05-05T13:29:46.114Z,95125.56
2023-05-05T13:32:12.822Z,95125.38
2023-05-05T13:34:39.638Z,95123.19
2023-05-05T13:37:06.538Z,95113.00
2023-05-05T13:39:33.207Z,95111.91
2023-05-05T13:41:59.735Z,95117.84
2023-05-05T13:44:26.331Z,95112.72
2023-05-05T13:46:53.102Z,95120.13
2023-05-05T13:49:20.214Z,95107.94
2023-05-05T13:51:47.306Z,95109.41
2023-05-05T13:54:14.000Z,95129.50
2023-05-05T13:56:40.790Z,95110.59
2023-05-05T13:59:07.495Z,95111.59
2023-05-05T14:01:34.213Z,95108.38
2023-05-05T14:04:03.554Z,95106.56
2023-05-05T14:06:31.640Z,95107.63
2023-05-05T14:08:58.248Z,95107.94
2023-05-05T14:11:24.851Z,95111.88
2023-05-05T14:13:52.002Z,95122.91
2023-05-05T14:16:18.820Z,95133.75
2023-05-05T14:18:45.703Z,95128.88
2023-05-05T14:21:12.311Z,95147.03
2023-05-05T14:23:38.952Z,95148.69
2023-05-05T14:26:05.583Z,95161.91
2023-05-05T14:28:32.234Z,95166.09
2023-05-05T14:30:58.912Z,95179.69
2023-05-05T14:33:25.535Z,95165.72
2023-05-05T14:35:52.346Z,95157.38
2023-05-05T14:38:19.158Z,95152.16
2023-05-05T14:40:45.759Z,95194.56
2023-05-05T14:43:12.359Z,95132.09
2023-05-05T14:45:38.989Z,95160.13
2023-05-05T14:48:05.821Z,95164.63
2023-05-05T14:50:32.521Z,95168.19
2023-05-05T14:52:59.060Z,95177.66
2023-05-05T14:55:26.120Z,95152.72
2023-05-05T14:57:52.755Z,95164.31
2023-05-05T15:00:19.601Z,95176.75
2023-05-05T15:02:48.150Z,95168.78
2023-05-05T15:05:15.159Z,95163.88
2023-05-05T15:07:42.030Z,95165.84
2023-05-05T15:10:08.929Z,95161.22
2023-05-05T15:12:35.520Z,95163.53
2023-05-05T15:15:02.196Z,95154.94
2023-05-05T15:17:30.734Z,95155.88
2023-05-05T15:19:57.580Z,95158.06
2023-05-05T15:22:24.132Z,95142.59
2023-05-05T15:24:50.686Z,95135.75
2023-05-05T15:27:18.302Z,95139.91
2023-05-05T15:29:45.256Z,95146.06
2023-05-05T15:32:11.995Z,95132.66
2023-05-05T15:34:38.585Z,95142.03
2023-05-05T15:37:05.445Z,95151.69
2023-05-05T15:39:32.060Z,95146.41
2023-05-05T15:42:00.408Z,95160.84
2023-05-05T15:44:26.978Z,95152.16
2023-05-05T15:46:53.706Z,95162.56
2023-05-05T15:49:20.395Z,95166.53
2023-05-05T15:51:48.408Z,95168.63
2023-05-05T15:54:14.947Z,95162.72
2023-05-05T15:56:41.594Z,95163.03
2023-05-05T15:59:08.182Z,95164.94
2023-05-05T16:01:36.332Z,95161.72
2023-05-05T16:04:03.640Z,95165.63
2023-05-05T16:06:30.610Z,95162.06
2023-05-05T16:08:58.630Z,95153.75
2023-05-05T16:11:26.523Z,95158.78
2023-05-05T16:13:53.502Z,95165.13
2023-05-05T16:16:20.257Z,95167.44
2023-05-05T16:18:47.029Z,95170.28
2023-05-05T16:21:13.671Z,95171.84
2023-05-05T16:23:40.331Z,95168.84
2023-05-05T16:26:07.007Z,95170.25
2023-05-05T16:28:34.364Z,95175.31
2023-05-05T16:31:02.327Z,95171.09
2023-05-05T16:33:29.291Z,95179.00
2023-05-05T16:35:56.265Z,95165.06
2023-05-05T16:38:23.127Z,95186.81
2023-05-05T16:40:49.693Z,95173.13
2023-05-05T16:43:16.309Z,95177.56
2023-05-05T16:45:43.546Z,95183.25
2023-05-05T16:48:10.180Z,95181.00
2023-05-05T16:50:36.752Z,95181.88
2023-05-05T16:53:03.286Z,95181.84
2023-05-05T16:55:30.195Z,95193.00
2023-05-05T16:57:56.945Z,95190.97
2023-05-05T17:00:23.480Z,95196.22
2023-05-05T17:02:50.216Z,95155.75
2023-05-05T17:05:17.724Z,95192.22
2023-05-05T17:07:44.594Z,95196.63
2023-05-05T17:10:11.136Z,95198.34
2023-05-05T17:12:37.768Z,95189.13
2023-05-05T17:15:04.784Z,95203.78
2023-05-05T17:17:31.370Z,95188.09
2023-05-05T17:19:57.959Z,95188.16
2023-05-05T17:22:24.553Z,95186.97
2023-05-05T17:24:51.070Z,95196.25
2023-05-05T17:27:17.693Z,95194.19
2023-05-05T17:29:44.262Z,95174.81
2023-05-05T17:32:11.020Z,95186.34
2023-05-05T17:34:37.787Z,95175.88
2023-05-05T17:37:04.721Z,95177.22
2023-05-05T17:39:31.356Z,95177.78
2023-05-05T17:41:57.862Z,95181.53
2023-05-05T17:44:24.444Z,95175.88
2023-05-05T17:46:51.297Z,95194.97
2023-05-05T17:49:17.933Z,95192.78
2023-05-05T17:51:44.572Z,95175.69
2023-05-05T17:54:11.630Z,95188.66
2023-05-05T17:56:38.412Z,95201.34
2023-05-05T17:59:05.051Z,95196.97
2023-05-05T18:01:31.763Z,95196.22
2023-05-05T18:03:58.466Z,95199.09
2023-05-05T18:06:25.715Z,95205.84
2023-05-05T18:08:52.588Z,95211.22
2023-05-05T18:11:21.187Z,95207.84
2023-05-05T18:13:47.775Z,95215.00
2023-05-05T18:16:14.361Z,95217.19
2023-05-05T18:18:41.316Z,95214.47
2023-05-05T18:21:12.257Z,95219.69
2023-05-05T18:23:42.009Z,95222.03
2023-05-05T18:26:08.849Z,95231.50
2023-05-05T18:28:36.727Z,95237.56
2023-05-05T18:31:03.505Z,95236.63
2023-05-05T18:33:30.119Z,95245.13
2023-05-05T18:35:57.771Z,95251.59
2023-05-05T18:38:24.470Z,95249.78
2023-05-05T18:40:51.012Z,95260.19
2023-05-05T18:43:17.574Z,95254.47
2023-05-05T18:45:44.147Z,95265.59
2023-05-05T18:48:11.669Z,95260.75
2023-05-05T18:50:38.273Z,95265.56
2023-05-05T18:53:04.844Z,95275.00
2023-05-05T18:55:31.490Z,95281.13
2023-05-05T18:57:58.392Z,95269.16
2023-05-05T19:00:25.238Z,95272.63
2023-05-05T19:02:51.955Z,95277.34
2023-05-05T19:05:18.628Z,95279.88
2023-05-05T19:07:45.584Z,95292.28
2023-05-05T19:10:12.181Z,95287.97
2023-05-05T19:12:38.930Z,95287.13
2023-05-05T19:15:06.922Z,95299.38
2023-05-05T19:17:33.925Z,95298.63
2023-05-05T19:20:00.683Z,95298.50
2023-05-05T19:22:27.347Z,95301.53
2023-05-05T19:24:53.879Z,95302.59
2023-05-05T19:27:20.510Z,95304.06
2023-05-05T19:29:52.011Z,95302.50
2023-05-05T19:32:21.592Z,95303.28
2023-05-05T19:34:48.340Z,95301.69
2023-05-05T19:37:14.985Z,95310.03
2023-05-05T19:39:44.406Z,95308.00
2023-05-05T19:42:11.191Z,95307.28
2023-05-05T19:44:37.872Z,95311.44
2023-05-05T19:47:04.746Z,95315.66
2023-05-05T19:49:31.501Z,95308.41
2023-05-05T19:51:59.400Z,95279.28
2023-05-05T19:54:26.752Z,95311.50
2023-05-05T19:56:55.218Z,95311.50
2023-05-05T19:59:21.985Z,95315.56
2023-05-05T20:01:48.653Z,95318.53
2023-05-05T20:04:15.682Z,95310.25
2023-05-05T20:06:42.193Z,95309.91
2023-05-05T20:09:08.867Z,95314.97
2023-05-05T20:11:35.757Z,95310.19
2023-05-05T20:14:02.365Z,95314.06
2023-05-05T20:16:29.095Z,95310.78
2023-05-05T20:18:56.041Z,95327.34
2023-05-05T20:21:22.666Z,95320.69
2023-05-05T20:23:49.330Z,95327.16
2023-05-05T20:26:16.046Z,95334.16
2023-05-05T20:28:45.217Z,95327.91
2023-05-05T20:31:14.998Z,95325.91
2023-05-05T20:33:41.644Z,95319.78
2023-05-05T20:36:08.461Z,95322.38
2023-05-05T20:38:35.111Z,95323.06
2023-05-05T20:41:01.752Z,95319.50
2023-05-05T20:43:28.506Z,95322.84
2023-05-05T20:45:55.162Z,95328.59
2023-05-05T20:48:21.883Z,95314.31
2023-05-05T20:50:48.492Z,95332.28
2023-05-05T20:53:18.870Z,95327.97
2023-05-05T20:55:45.666Z,95326.63
2023-05-05T20:58:12.630Z,95328.38
2023-05-05T21:00:39.336Z,95318.38
2023-05-05T21:03:06.143Z,95327.72
2023-05-05T21:05:32.792Z,95327.50
2023-05-05T21:08:01.192Z,95326.97
2023-05-05T21:10:29.047Z,95331.63
2023-05-05T21:12:55.993Z,95330.91
2023-05-05T21:15:22.745Z,95337.50
2023-05-05T21:17:49.368Z,95324.00
2023-05-05T21:20:16.495Z,95331.03
2023-05-05T21:22:43.105Z,95319.31
2023-05-05T21:25:21.019Z,95323.75
2023-05-05T21:27:48.514Z,95320.97
2023-05-05T21:30:15.693Z,95321.22
2023-05-05T21:32:42.845Z,95290.22
2023-05-05T21:35:10.161Z,95326.63
2023-05-05T21:37:38.824Z,95333.78
2023-05-05T21:40:10.847Z,95331.13
2023-05-05T21:42:37.715Z,95331.03
2023-05-05T21:45:04.613Z,95327.78
2023-05-05T21:47:31.300Z,95322.34
2023-05-05T21:49:58.874Z,95318.13
2023-05-05T21:52:25.527Z,95317.34
2023-05-05T21:54:52.274Z,95314.69
2023-05-05T21:57:18.909Z,95315.88
2023-05-05T21:59:45.674Z,95309.88
2023-05-05T22:02:12.308Z,95308.00
2023-05-05T22:04:38.942Z,95300.59
2023-05-05T22:07:05.921Z,95308.97
2023-05-05T22:09:32.547Z,95303.84
2023-05-05T22:11:59.149Z,95315.19
2023-05-05T22:14:25.723Z,95314.28
2023-05-05T22:16:52.310Z,95305.09
2023-05-05T22:19:18.814Z,95315.13
2023-05-05T22:21:45.357Z,95317.63
2023-05-05T22:24:12.034Z,95306.00
2023-05-05T22:26:42.993Z,95309.06
2023-05-05T22:29:10.819Z,95313.97
2023-05-05T22:31:37.605Z,95314.97
2023-05-05T22:34:04.397Z,95320.28
2023-05-05T22:36:31.474Z,95316.22
2023-05-05T22:38:57.987Z,95311.03
2023-05-05T22:41:24.787Z,95303.25
2023-05-05T22:43:51.377Z,95302.03
2023-05-05T22:46:17.964Z,95315.88
2023-05-05T22:48:44.485Z,95316.69
2023-05-05T22:51:11.364Z,95321.84
2023-05-05T22:53:38.652Z,95315.94
2023-05-05T22:56:06.284Z,95316.22
2023-05-05T22:58:32.808Z,95310.25
2023-05-05T23:00:59.634Z,95309.97
2023-05-05T23:03:26.299Z,95307.47
2023-05-05T23:05:52.934Z,95310.94
2023-05-05T23:08:20.515Z,95304.34
2023-05-05T23:10:47.108Z,95299.84
2023-05-05T23:13:13.877Z,95295.63
2023-05-05T23:15:41.201Z,95295.34
2023-05-05T23:18:07.877Z,95301.25
2023-05-05T23:20:34.538Z,95299.16
2023-05-05T23:23:01.280Z,95294.78
2023-05-05T23:25:27.832Z,95309.03
2023-05-05T23:27:54.582Z,95314.06
2023-05-05T23:30:21.288Z,95317.47
2023-05-05T23:32:47.972Z,95325.06
2023-05-05T23:35:14.571Z,95314.53
2023-05-05T23:37:41.288Z,95307.13
2023-05-05T23:40:08.785Z,95305.03
2023-05-05T23:42:35.444Z,95309.47
2023-05-05T23:45:02.014Z,95310.13
2023-05-05T23:47:28.614Z,95307.97
2023-05-05T23:49:55.268Z,95302.16
2023-05-05T23:52:22.557Z,95290.03
2023-05-05T23:54:49.120Z,95285.44
2023-05-05T23:57:16.083Z,95275.00
2023-05-05T23:59:42.678Z,95260.13
